Time;durP1;ratioP1;P1;durP2;ratioP2;P2;SDS_P1;SDS_P2;PMS_P1;PMS_P2;Temp;Humidity;BMP_temperature;BMP_pressure;BME280_temperature;BME280_humidity;BME280_pressure;Samples;Min_cycle;Max_cycle;Signal;HPM_P1;HPM_P2
2021/05/03 00:00:22;;;;;;;10.63;8.50;;;10.00;99.90;;;10.27;64.75;101963.63;5075848;28;20092;-76
2021/05/03 00:02:49;;;;;;;13.40;9.50;;;10.00;99.90;;;10.29;64.94;101961.91;5075734;28;20063;-76
2021/05/03 00:05:23;;;;;;;10.82;8.75;;;10.00;99.90;;;10.39;64.46;101960.25;5075127;28;20057;-76
2021/05/03 00:07:51;;;;;;;11.82;8.82;;;10.00;99.90;;;9.78;64.71;101844.78;5075854;28;20052;-76
2021/05/03 00:10:19;;;;;;;10.43;9.13;;;10.10;99.90;;;10.40;64.59;101962.03;5075945;28;20045;-76
2021/05/03 00:12:47;;;;;;;9.63;8.52;;;10.10;99.90;;;10.37;64.32;101954.06;5076090;28;20041;-76
2021/05/03 00:15:17;;;;;;;10.32;9.35;;;10.00;99.90;;;10.38;64.39;101959.38;5075855;28;20045;-77
2021/05/03 00:17:44;;;;;;;9.67;8.67;;;10.00;99.90;;;10.17;64.56;101951.13;5075501;28;20045;-76
2021/05/03 00:20:13;;;;;;;13.90;10.30;;;9.90;99.90;;;10.00;65.62;101956.16;5074828;28;20056;-76
2021/05/03 00:22:41;;;;;;;11.05;9.88;;;9.80;99.90;;;9.96;65.98;101954.31;5075431;28;20119;-76
2021/05/03 00:25:10;;;;;;;13.15;10.93;;;9.60;99.90;;;9.95;65.49;101949.88;5075776;28;20072;-76
2021/05/03 00:27:39;;;;;;;12.95;10.23;;;9.60;99.90;;;9.92;65.93;101946.31;5075811;28;20052;-76
2021/05/03 00:30:07;;;;;;;12.65;10.40;;;9.50;99.90;;;9.82;65.50;101924.16;5073933;28;20494;-76
2021/05/03 00:32:35;;;;;;;13.50;10.60;;;9.60;99.90;;;10.01;65.45;101947.34;5075443;28;20393;-76
2021/05/03 00:35:05;;;;;;;12.18;10.98;;;9.60;99.90;;;10.01;65.70;101936.75;5075311;28;20110;-77
2021/05/03 00:37:36;;;;;;;14.25;10.85;;;9.60;99.90;;;10.04;65.27;101947.38;5074244;28;20041;-77
2021/05/03 00:40:06;;;;;;;11.75;10.55;;;9.60;99.90;;;9.93;65.31;101919.00;5075381;28;20092;-77
2021/05/03 00:42:34;;;;;;;13.38;10.95;;;9.70;99.90;;;10.01;65.59;101936.75;5075340;28;20064;-74
2021/05/03 00:45:07;;;;;;;12.95;10.90;;;9.70;99.90;;;10.02;65.85;101945.59;5073848;28;20165;-75
2021/05/03 00:47:35;;;;;;;13.52;12.05;;;9.60;99.90;;;10.01;65.59;101943.78;5075344;28;20402;-75
2021/05/03 00:50:04;;;;;;;15.57;12.55;;;9.70;99.90;;;9.44;65.61;101846.06;5075093;28;20140;-76
2021/05/03 00:52:33;;;;;;;15.98;12.13;;;9.70;99.90;;;9.98;65.48;101930.56;5090793;28;20143;-76
2021/05/03 00:55:00;;;;;;;14.68;12.27;;;9.70;99.90;;;10.05;65.29;101937.69;5075106;28;20079;-75
2021/05/03 00:57:28;;;;;;;16.80;13.10;;;9.70;99.90;;;10.08;65.69;101931.56;5075177;28;20055;-77
2021/05/03 00:59:56;;;;;;;15.00;12.20;;;9.70;99.90;;;9.49;65.66;101820.59;5074829;28;20551;-76
2021/05/03 01:02:24;;;;;;;15.98;13.00;;;9.80;99.90;;;10.08;65.60;101928.94;5073341;28;20414;-76
2021/05/03 01:04:51;;;;;;;14.52;12.80;;;9.70;99.90;;;10.04;65.46;101923.56;5074822;28;20080;-76
2021/05/03 01:07:19;;;;;;;15.45;12.35;;;9.70;99.90;;;10.04;65.76;101930.66;5075020;28;20037;-76
2021/05/03 01:09:46;;;;;;;14.63;13.13;;;9.70;99.90;;;9.99;65.65;101924.38;5074430;28;20106;-76
2021/05/03 01:12:14;;;;;;;16.30;13.18;;;9.70;99.90;;;9.97;66.09;101918.19;5074711;28;20420;-76
2021/05/03 01:14:42;;;;;;;14.52;12.43;;;9.70;99.90;;;9.95;65.98;101926.09;5074326;28;20044;-76
2021/05/03 01:17:09;;;;;;;18.85;13.52;;;9.60;99.90;;;10.00;65.69;101923.53;5074563;28;20045;-76
2021/05/03 01:19:38;;;;;;;16.02;13.77;;;9.60;99.90;;;9.93;65.94;101905.78;5074265;28;20445;-76
2021/05/03 01:22:07;;;;;;;16.88;15.15;;;9.60;99.90;;;9.96;66.34;101917.31;5074503;28;20072;-76
2021/05/03 01:24:34;;;;;;;19.45;14.85;;;9.60;99.90;;;9.93;66.28;101917.25;5074381;28;20033;-76
2021/05/03 01:27:01;;;;;;;18.40;16.30;;;9.60;99.90;;;9.84;66.92;101911.84;5074295;28;20044;-76
2021/05/03 01:29:29;;;;;;;19.27;16.33;;;9.60;99.90;;;9.90;67.00;101914.59;5074001;28;20036;-76
2021/05/03 01:31:56;;;;;;;21.10;16.95;;;9.50;99.90;;;9.87;67.31;101911.00;5074159;28;20044;-76
2021/05/03 01:34:24;;;;;;;21.92;19.08;;;9.50;99.90;;;9.83;67.56;101914.47;5074094;28;20052;-75
2021/05/03 01:36:51;;;;;;;26.05;20.15;;;9.50;99.90;;;9.57;67.90;101895.56;5073791;28;20509;-76
2021/05/03 01:39:19;;;;;;;22.60;20.17;;;9.40;99.90;;;9.71;68.43;101903.72;5074069;28;20041;-76
2021/05/03 01:41:46;;;;;;;24.08;20.92;;;9.40;99.90;;;9.69;69.30;101903.69;5072738;28;20409;-76
2021/05/03 01:44:16;;;;;;;27.67;20.30;;;9.30;99.90;;;9.61;69.28;101909.69;5073670;28;20462;-76
2021/05/03 01:46:44;;;;;;;23.75;20.63;;;9.30;99.90;;;9.02;69.34;101797.81;5073955;28;20131;-76
2021/05/03 01:49:12;;;;;;;25.98;20.92;;;9.30;99.90;;;9.59;69.85;101914.06;5073948;28;20045;-75
2021/05/03 01:51:40;;;;;;;24.02;20.92;;;9.30;99.90;;;9.55;70.57;101905.22;5072532;28;20071;-76
2021/05/03 01:54:08;;;;;;;26.20;21.50;;;9.20;99.90;;;9.52;70.25;101909.56;5073748;28;20049;-76
2021/05/03 01:56:36;;;;;;;25.85;20.55;;;9.20;99.90;;;9.59;70.63;101903.50;5073755;28;20480;-76
2021/05/03 01:59:06;;;;;;;24.13;20.48;;;9.20;99.90;;;9.63;70.50;101911.50;5073406;28;20375;-76
2021/05/03 02:01:34;;;;;;;27.05;20.85;;;9.30;99.90;;;9.64;70.59;101896.56;5073575;28;20068;-76
2021/05/03 02:04:02;;;;;;;27.35;22.58;;;9.30;99.90;;;9.52;70.76;101907.81;5073666;28;20126;-76
2021/05/03 02:06:30;;;;;;;30.02;21.73;;;9.20;99.90;;;9.60;71.00;101903.53;5073262;28;20040;-76
2021/05/03 02:08:58;;;;;;;29.60;22.10;;;9.20;99.90;;;9.63;70.90;101908.88;5073234;28;20075;-76
2021/05/03 02:11:25;;;;;;;27.73;21.63;;;9.30;99.90;;;9.66;70.90;101905.38;5071852;28;20045;-76
2021/05/03 02:13:53;;;;;;;27.35;23.00;;;9.30;99.90;;;9.76;70.81;101904.66;5073075;28;20486;-76
2021/05/03 02:16:20;;;;;;;27.75;22.98;;;9.40;99.90;;;9.73;70.68;101905.50;5073158;28;20093;-75
2021/05/03 02:18:48;;;;;;;29.83;23.20;;;9.40;99.90;;;9.71;70.51;101904.59;5089009;28;20056;-76
2021/05/03 02:21:15;;;;;;;28.70;24.02;;;9.40;99.90;;;9.68;70.37;101901.91;5073249;28;20135;-76
2021/05/03 02:23:43;;;;;;;30.50;23.35;;;9.40;99.90;;;9.72;70.42;101901.09;5088893;28;20064;-75
2021/05/03 02:26:10;;;;;;;30.90;24.15;;;9.40;99.90;;;9.75;70.67;101901.16;5073585;28;20492;-76
2021/05/03 02:28:37;;;;;;;28.48;24.55;;;9.40;99.90;;;9.75;70.91;101898.50;5073223;28;20044;-77
2021/05/03 02:31:06;;;;;;;30.20;26.05;;;9.40;99.90;;;9.76;70.73;101899.38;5073198;28;20090;-75
2021/05/03 02:33:33;;;;;;;32.65;26.67;;;9.40;99.90;;;9.75;70.77;101901.16;5073096;28;20048;-75
2021/05/03 02:36:01;;;;;;;33.08;27.00;;;9.40;99.90;;;9.77;70.41;101895.88;5088652;28;20036;-76
2021/05/03 02:38:30;;;;;;;35.63;26.45;;;9.40;99.90;;;9.75;70.76;101882.66;5072867;28;20530;-76
2021/05/03 02:40:58;;;;;;;34.65;26.95;;;9.40;99.90;;;9.76;70.86;101884.41;5071763;28;20068;-75
2021/05/03 02:43:25;;;;;;;37.60;27.85;;;9.40;99.90;;;9.81;70.71;101885.34;5072568;28;20057;-75
2021/05/03 02:45:53;;;;;;;36.63;29.33;;;9.50;99.90;;;9.61;70.47;101851.59;5073022;28;20040;-75
2021/05/03 02:48:21;;;;;;;37.95;28.67;;;9.50;99.90;;;9.68;71.03;101878.13;5072710;28;20413;-74
2021/05/03 02:50:49;;;;;;;36.78;28.98;;;9.40;99.90;;;9.74;71.04;101879.97;5072966;28;20045;-75
2021/05/03 02:53:16;;;;;;;38.88;29.75;;;9.40;99.90;;;9.74;71.25;101867.66;5072884;28;20055;-75
2021/05/03 02:55:44;;;;;;;39.90;30.60;;;9.40;99.90;;;9.78;71.17;101869.47;5071580;28;20052;-76
2021/05/03 02:58:11;;;;;;;43.85;32.85;;;9.40;99.90;;;9.69;71.60;101872.00;5072889;28;20051;-74
2021/05/03 03:00:39;;;;;;;41.95;31.50;;;9.40;99.90;;;9.64;71.62;101868.38;5072865;28;20063;-76
2021/05/03 03:03:06;;;;;;;39.92;32.28;;;9.30;99.90;;;9.71;71.97;101869.38;5072328;28;20067;-74
2021/05/03 03:05:35;;;;;;;36.25;30.70;;;9.40;99.90;;;9.20;71.73;101779.66;5072784;28;20037;-75
2021/05/03 03:08:04;;;;;;;41.65;32.15;;;9.40;99.90;;;9.58;71.95;101865.63;5072831;28;20056;-75
2021/05/03 03:10:32;;;;;;;42.28;33.75;;;9.30;99.90;;;9.52;72.08;101862.03;5072768;28;20045;-76
2021/05/03 03:13:03;;;;;;;42.97;33.15;;;9.20;99.90;;;9.49;72.06;101862.84;5072705;28;20044;-76
2021/05/03 03:15:33;;;;;;;41.35;32.25;;;9.20;99.90;;;9.56;71.95;101864.72;5072881;28;20086;-75
2021/05/03 03:18:02;;;;;;;40.75;31.73;;;9.20;99.90;;;9.46;72.16;101851.38;5072780;28;20046;-75
2021/05/03 03:20:35;;;;;;;41.20;32.03;;;9.20;99.90;;;9.51;72.05;101854.94;5072672;28;20053;-75
2021/05/03 03:23:03;;;;;;;41.92;32.42;;;9.20;99.90;;;9.45;71.97;101861.03;5072389;28;20048;-76
2021/05/03 03:25:31;;;;;;;40.90;32.72;;;9.10;99.90;;;9.48;72.21;101861.09;5072636;28;20057;-76
2021/05/03 03:27:59;;;;;;;40.50;32.65;;;9.10;99.90;;;9.44;71.66;101855.72;5072692;28;20102;-76
2021/05/03 03:30:26;;;;;;;43.25;32.72;;;9.10;99.90;;;9.32;72.23;101856.41;5105168;28;20135;-76
2021/05/03 03:32:53;;;;;;;41.95;31.77;;;9.00;99.90;;;9.21;72.51;101850.09;5072176;28;20127;-75
2021/05/03 03:35:21;;;;;;;43.20;32.33;;;9.00;99.90;;;9.21;72.46;101847.44;5072458;28;20056;-76
2021/05/03 03:37:50;;;;;;;41.15;32.40;;;8.90;99.90;;;9.29;72.74;101844.94;5071191;28;20037;-75
2021/05/03 03:40:19;;;;;;;39.85;31.77;;;9.00;99.90;;;9.26;71.89;101850.13;5072294;28;20059;-76
2021/05/03 03:42:47;;;;;;;40.58;30.75;;;9.00;99.90;;;8.87;72.85;101801.09;5072305;28;20051;-75
2021/05/03 03:45:16;;;;;;;41.92;30.98;;;8.90;99.90;;;9.16;72.57;101850.84;5071171;28;20060;-75
2021/05/03 03:47:44;;;;;;;39.63;31.05;;;8.90;99.90;;;9.14;73.17;101850.81;5072149;28;20048;-75
2021/05/03 03:50:12;;;;;;;42.80;31.13;;;8.80;99.90;;;9.17;72.98;101844.72;5072376;28;20140;-74
2021/05/03 03:52:42;;;;;;;41.67;31.45;;;8.80;99.90;;;9.26;73.08;101848.41;5072311;28;20057;-75
2021/05/03 03:55:12;;;;;;;41.90;30.67;;;8.90;99.90;;;9.20;73.27;101853.56;5071750;28;20444;-75
2021/05/03 03:57:40;;;;;;;37.92;31.38;;;8.90;99.90;;;9.21;72.96;101852.72;5075928;28;20090;-75
2021/05/03 04:00:09;;;;;;;40.28;31.15;;;8.90;99.90;;;9.14;72.74;101836.75;5075721;28;20044;-75
2021/05/03 04:02:36;;;;;;;38.17;29.88;;;8.90;99.90;;;9.13;72.60;101843.78;5075793;28;20044;-76
2021/05/03 04:05:14;;;;;;;41.80;31.27;;;8.90;99.90;;;8.99;73.26;101819.78;5074630;28;20143;-75
2021/05/03 04:07:46;;;;;;;39.33;30.15;;;8.80;99.90;;;9.16;72.93;101837.66;5076035;28;20067;-75
2021/05/03 04:10:25;;;;;;;42.85;32.28;;;8.80;99.90;;;9.20;72.91;101840.38;5075946;28;20056;-76
2021/05/03 04:13:13;;;;;;;42.15;31.13;;;8.90;99.90;;;9.07;73.01;101819.91;5076046;28;20090;-75
2021/05/03 04:21:18;;;;;;;40.50;31.85;;;8.70;99.90;;;9.07;73.75;101833.13;5075519;28;20051;-77
2021/05/03 04:23:50;;;;;;;43.65;32.13;;;8.80;99.90;;;9.17;73.74;101829.78;5075761;28;20040;-71
2021/05/03 04:26:21;;;;;;;43.28;33.00;;;8.80;99.90;;;9.09;73.74;101829.66;5075674;28;20037;-78
2021/05/03 04:28:50;;;;;;;;;;;8.80;99.90;;;9.01;73.41;101810.16;5076321;28;20036;-74
2021/05/03 04:31:19;;;;;;;42.72;32.28;;;8.90;99.90;;;9.25;73.21;101843.09;5091020;28;19920;-74
2021/05/03 04:33:47;;;;;;;42.20;32.63;;;9.00;99.90;;;9.15;73.25;101810.38;5075267;28;20123;-74
2021/05/03 04:36:15;;;;;;;41.50;32.70;;;8.90;99.90;;;9.05;73.35;101789.97;5074018;28;20414;-78
2021/05/03 04:38:42;;;;;;;43.03;33.45;;;9.00;99.90;;;9.24;73.57;101818.44;5075655;28;20486;-75
2021/05/03 04:41:10;;;;;;;41.95;33.63;;;9.00;99.90;;;9.22;73.35;101817.53;5075271;28;20040;-76
2021/05/03 04:43:39;;;;;;;45.83;34.10;;;9.00;99.90;;;9.17;73.93;101821.84;5074819;28;20379;-74
2021/05/03 04:46:08;;;;;;;41.00;33.85;;;8.90;99.90;;;9.19;74.34;101820.13;5074896;28;20052;-74
2021/05/03 04:48:36;;;;;;;45.00;36.13;;;8.90;99.90;;;8.77;74.73;101764.88;5075036;28;20045;-76
2021/05/03 04:51:05;;;;;;;45.25;35.40;;;8.80;99.90;;;9.16;74.83;101819.16;5075307;28;20047;-74
2021/05/03 04:53:33;;;;;;;49.13;37.13;;;8.90;99.90;;;8.55;74.37;101709.09;5074913;28;20072;-74
2021/05/03 04:56:02;;;;;;;51.47;36.85;;;8.90;99.90;;;9.18;74.47;101815.69;5073682;28;20048;-71
2021/05/03 04:58:29;;;;;;;53.03;38.45;;;8.90;99.90;;;9.18;75.01;101814.81;5074974;28;20398;-75
2021/05/03 05:00:58;;;;;;;53.35;38.92;;;8.90;99.90;;;9.13;75.52;101805.94;5074926;28;20044;-75
2021/05/03 05:03:25;;;;;;;55.60;41.60;;;8.90;99.90;;;9.16;75.04;101791.03;5074793;28;20056;-75
2021/05/03 05:05:53;;;;;;;54.10;39.95;;;9.00;99.90;;;9.31;75.72;101820.31;5074042;28;20036;-75
2021/05/03 05:08:22;;;;;;;56.30;42.08;;;9.00;99.90;;;9.29;75.15;101822.03;5075025;28;20036;-75
2021/05/03 05:10:49;;;;;;;58.95;43.40;;;9.00;99.90;;;9.25;75.97;101817.59;5074358;28;20045;-75
2021/05/03 05:13:17;;;;;;;59.40;43.90;;;9.00;99.90;;;9.33;76.03;101830.91;5074512;28;20052;-75
2021/05/03 05:15:45;;;;;;;60.33;43.38;;;9.00;99.90;;;9.32;76.01;101816.81;5074891;28;20074;-74
2021/05/03 05:18:13;;;;;;;59.65;43.63;;;9.10;99.90;;;9.21;76.32;101813.13;5107118;28;20048;-74
2021/05/03 05:20:42;;;;;;;59.60;43.78;;;9.10;99.90;;;9.35;76.19;101821.28;5074461;28;20090;-74
2021/05/03 05:23:09;;;;;;;62.05;44.78;;;9.10;99.90;;;9.32;76.62;101827.38;5074658;28;20048;-75
2021/05/03 05:25:37;;;;;;;58.25;44.95;;;9.10;99.90;;;9.40;76.75;101822.22;5073010;28;20482;-74
2021/05/03 05:28:05;;;;;;;64.90;45.90;;;9.10;99.90;;;9.33;76.35;101834.41;5074498;28;20045;-74
2021/05/03 05:30:32;;;;;;;64.38;45.35;;;9.10;99.90;;;9.28;76.76;101798.25;5072988;28;20143;-74
2021/05/03 05:33:00;;;;;;;61.22;44.90;;;9.10;99.90;;;9.46;76.89;101824.94;5089746;28;20458;-75
2021/05/03 05:35:28;;;;;;;61.15;45.30;;;9.20;99.90;;;9.50;76.87;101832.06;5072766;28;20037;-74
2021/05/03 05:37:56;;;;;;;60.13;45.72;;;9.20;99.90;;;9.53;76.90;101825.06;5074050;28;20076;-74
2021/05/03 05:40:24;;;;;;;62.67;45.47;;;9.20;99.90;;;9.60;76.80;101826.06;5073692;28;20048;-74
2021/05/03 05:42:51;;;;;;;63.80;46.67;;;9.30;99.90;;;9.59;76.65;101835.72;5073878;28;20094;-74
2021/05/03 05:45:27;;;;;;;62.28;45.80;;;9.30;99.90;;;9.65;76.94;101819.97;5073701;28;20375;-74
2021/05/03 05:47:54;;;;;;;61.30;47.08;;;9.40;99.90;;;9.71;77.07;101829.75;5073600;28;20051;-73
2021/05/03 05:50:22;;;;;;;57.80;45.08;;;9.40;99.90;;;9.74;76.76;101820.09;5072530;28;20058;-74
2021/05/03 05:52:51;;;;;;;60.40;45.88;;;9.40;99.90;;;9.87;76.60;101824.69;5073794;28;20053;-74
2021/05/03 05:55:18;;;;;;;66.18;49.35;;;9.60;99.90;;;9.90;76.82;101814.16;5073557;28;20045;-74
2021/05/03 05:57:45;;;;;;;62.38;47.08;;;9.60;99.90;;;9.93;77.16;101813.28;5073702;28;20072;-74
2021/05/03 06:00:14;;;;;;;68.60;48.92;;;9.60;99.90;;;10.02;76.97;101818.72;5073421;28;20492;-74
2021/05/03 06:02:43;;;;;;;66.55;49.25;;;9.70;99.90;;;10.00;77.23;101824.00;5073518;28;20071;-74
2021/05/03 06:05:12;;;;;;;66.72;49.85;;;9.70;99.90;;;10.02;77.41;101834.56;5073601;28;20041;-75
2021/05/03 06:07:39;;;;;;;65.80;50.13;;;9.70;99.90;;;10.18;77.24;101820.69;5073526;28;20448;-74
2021/05/03 06:10:11;;;;;;;71.68;50.60;;;9.90;99.90;;;10.19;76.98;101818.97;5073233;28;20044;-74
2021/05/03 06:12:38;;;;;;;68.35;50.85;;;9.90;99.90;;;10.21;77.02;101819.88;5089096;28;20052;-74
2021/05/03 06:15:08;;;;;;;72.88;53.83;;;9.90;99.90;;;10.32;77.43;101820.88;5073510;28;20041;-74
2021/05/03 06:17:35;;;;;;;73.60;54.95;;;9.90;99.90;;;10.24;77.54;101820.78;5088238;28;20048;-74
2021/05/03 06:20:05;;;;;;;76.95;54.75;;;10.00;99.90;;;10.32;77.48;101828.81;5073109;28;20052;-75
2021/05/03 06:22:35;;;;;;;75.82;54.47;;;10.00;99.90;;;10.31;77.79;101820.00;5073291;28;20047;-74
2021/05/03 06:25:06;;;;;;;80.00;57.05;;;10.00;99.90;;;10.19;78.05;101805.72;5073314;28;20067;-74
2021/05/03 06:27:35;;;;;;;78.13;56.15;;;10.00;99.90;;;10.31;78.18;101819.09;5073163;28;20516;-75
2021/05/03 06:30:04;;;;;;;80.78;57.15;;;10.00;99.90;;;10.41;78.55;101827.19;5073015;28;20460;-74
2021/05/03 06:32:32;;;;;;;81.60;57.60;;;10.10;99.90;;;10.48;78.14;101834.31;5073233;28;20761;-75
2021/05/03 06:34:59;;;;;;;84.72;58.58;;;10.10;99.90;;;10.56;78.24;101822.06;5073047;28;20094;-74
2021/05/03 06:37:27;;;;;;;82.22;59.00;;;10.20;99.90;;;10.56;78.55;101831.75;5071761;28;20047;-74
2021/05/03 06:39:54;;;;;;;82.50;58.85;;;10.20;99.90;;;9.97;78.70;101719.97;5073167;28;20087;-74
2021/05/03 06:42:21;;;;;;;84.80;61.63;;;10.20;99.90;;;10.43;79.71;101829.84;5073027;28;20036;-74
2021/05/03 06:44:49;;;;;;;89.53;63.13;;;10.20;99.90;;;10.52;79.79;101819.34;5071610;28;20080;-73
2021/05/03 06:47:18;;;;;;;94.60;66.95;;;10.20;99.90;;;10.64;80.28;101825.69;5071648;28;20052;-74
2021/05/03 06:49:46;;;;;;;89.85;63.10;;;10.30;99.90;;;10.80;79.95;101824.94;5072973;28;20490;-74
2021/05/03 06:52:13;;;;;;;91.90;63.83;;;10.50;99.90;;;10.80;79.94;101801.13;5071335;28;20049;-74
2021/05/03 06:54:42;;;;;;;88.38;61.42;;;10.60;99.90;;;11.10;79.49;101821.69;5072288;28;20040;-74
2021/05/03 06:57:09;;;;;;;93.38;65.70;;;10.80;99.90;;;11.08;79.25;101820.81;5071574;28;20056;-74
2021/05/03 06:59:37;;;;;;;96.20;66.32;;;10.80;99.90;;;10.98;79.14;101800.41;5071563;28;20144;-74
2021/05/03 07:02:05;;;;;;;91.30;64.28;;;10.80;99.90;;;11.24;79.23;101824.47;5072487;28;20242;-74
2021/05/03 07:04:34;;;;;;;93.10;65.78;;;10.90;99.90;;;11.33;79.02;101824.53;5072852;28;20048;-74
2021/05/03 07:07:01;;;;;;;90.45;65.78;;;11.00;99.90;;;11.42;78.85;101825.47;5072565;28;20045;-74
2021/05/03 07:09:29;;;;;;;85.57;60.53;;;11.10;99.90;;;11.35;78.59;101826.31;5072509;28;20052;-74
2021/05/03 07:11:56;;;;;;;88.20;62.55;;;11.10;99.90;;;11.61;78.41;101814.13;5072751;28;20044;-73
2021/05/03 07:14:24;;;;;;;91.45;62.35;;;11.30;99.90;;;11.82;78.46;101820.50;5072213;28;20494;-73
2021/05/03 07:16:52;;;;;;;89.85;62.38;;;11.50;99.90;;;11.84;77.62;101819.63;5072707;28;20052;-73
2021/05/03 07:19:20;;;;;;;83.60;59.50;;;11.50;99.90;;;12.03;77.09;101820.59;5072399;28;20068;-73
2021/05/03 07:21:48;;;;;;;81.00;59.88;;;11.70;99.90;;;12.20;76.74;101808.28;5088119;28;20075;-74
2021/05/03 07:24:15;;;;;;;85.50;58.28;;;11.90;99.90;;;12.30;76.12;101812.75;5071145;28;20049;-73
2021/05/03 07:26:43;;;;;;;84.05;60.42;;;12.00;99.90;;;12.37;75.89;101819.84;5071309;28;20037;-73
2021/05/03 07:29:10;;;;;;;81.20;56.42;;;12.10;99.90;;;12.18;75.50;101772.91;5073280;28;20071;-74
2021/05/03 07:31:38;;;;;;;77.93;53.55;;;12.10;99.90;;;12.47;74.76;101819.91;5076475;28;20055;-73
2021/05/03 07:34:06;;;;;;;74.85;51.65;;;12.20;99.90;;;12.53;74.47;101817.28;5076152;28;20048;-73
2021/05/03 07:36:34;;;;;;;66.40;50.88;;;12.30;99.90;;;12.60;74.19;101820.84;5076312;28;20052;-73
2021/05/03 07:39:03;;;;;;;73.60;50.25;;;12.30;99.90;;;12.67;73.98;101820.84;5076197;28;20098;-73
2021/05/03 07:41:30;;;;;;;60.78;43.25;;;12.40;99.90;;;12.67;72.65;101812.00;5076296;28;20040;-74
2021/05/03 07:43:57;;;;;;;51.40;39.60;;;12.40;99.90;;;12.55;71.70;101796.03;5074688;28;20443;-74
2021/05/03 07:46:25;;;;;;;54.95;41.65;;;12.40;99.90;;;12.64;71.15;101817.28;5076195;28;20056;-74
2021/05/03 07:48:56;;;;;;;55.50;41.15;;;12.50;99.90;;;12.72;71.52;101804.91;5076169;28;20094;-74
2021/05/03 07:51:24;;;;;;;57.53;42.05;;;12.40;99.90;;;12.38;71.90;101750.00;5076383;28;20359;-74
2021/05/03 07:53:53;;;;;;;55.17;42.42;;;12.40;99.90;;;12.79;72.22;101790.78;5075981;28;20153;-74
2021/05/03 07:56:20;;;;;;;53.67;40.83;;;12.60;99.90;;;12.91;70.67;101808.50;5075763;28;20514;-73
2021/05/03 07:58:50;;;;;;;54.25;40.55;;;12.60;99.90;;;13.00;70.97;101809.41;5076194;28;20043;-74
2021/05/03 08:01:18;;;;;;;46.35;35.33;;;12.70;99.90;;;12.97;70.12;101806.72;5075372;28;20489;-73
2021/05/03 08:03:45;;;;;;;47.60;36.50;;;12.70;99.90;;;12.87;69.50;101810.28;5074548;28;20095;-74
2021/05/03 08:06:14;;;;;;;43.25;35.10;;;12.60;99.90;;;12.78;69.60;101799.63;5074353;28;20053;-75
2021/05/03 08:08:47;;;;;;;46.97;33.97;;;12.70;99.90;;;12.99;69.61;101810.25;5075786;28;20048;-74
2021/05/03 08:11:18;;;;;;;47.70;33.60;;;12.70;99.90;;;13.03;69.83;101808.50;5075510;28;20074;-74
2021/05/03 08:13:46;;;;;;;44.28;33.30;;;12.70;99.90;;;12.90;70.17;101773.09;5075701;28;20310;-74
2021/05/03 08:16:18;;;;;;;48.50;34.15;;;12.80;99.90;;;13.32;70.07;101807.66;5075586;28;20063;-75
2021/05/03 08:18:46;;;;;;;43.25;30.58;;;13.00;99.90;;;13.27;68.55;101789.94;5074181;28;20044;-75
2021/05/03 08:21:13;;;;;;;44.25;30.45;;;13.10;99.90;;;13.12;68.24;101806.78;5075592;28;20036;-74
2021/05/03 08:23:41;;;;;;;40.83;31.73;;;12.90;99.90;;;13.36;68.61;101803.22;5075436;28;20055;-74
2021/05/03 08:26:09;;;;;;;32.42;26.63;;;13.00;99.90;;;13.31;67.54;101808.53;5075566;28;20048;-72
2021/05/03 08:28:39;;;;;;;35.00;26.08;;;13.10;99.90;;;12.39;66.98;101643.88;5074166;28;20508;-75
2021/05/03 08:31:08;;;;;;;35.45;25.35;;;13.10;99.90;;;13.35;66.66;101794.38;5075547;28;20048;-74
2021/05/03 08:33:35;;;;;;;36.38;25.52;;;13.10;99.90;;;13.42;66.42;101804.09;5075289;28;20044;-74
2021/05/03 08:36:04;;;;;;;34.22;26.30;;;13.10;99.90;;;13.48;66.59;101804.09;5075650;28;20444;-74
2021/05/03 08:38:31;;;;;;;31.65;24.25;;;13.20;99.90;;;13.47;65.86;101799.66;5073990;28;20588;-74
2021/05/03 08:41:02;;;;;;;36.53;25.63;;;13.20;99.90;;;13.41;66.39;101796.13;5074464;28;20048;-74
2021/05/03 08:43:31;;;;;;;33.70;25.70;;;13.20;99.90;;;13.32;66.85;101786.38;5075221;28;20050;-74
2021/05/03 08:45:59;;;;;;;35.78;24.23;;;13.10;99.90;;;13.53;67.11;101799.66;5074875;28;20040;-74
2021/05/03 08:48:34;;;;;;;29.35;22.95;;;13.20;99.90;;;13.64;66.33;101801.41;5075040;28;20086;-74
2021/05/03 08:51:11;;;;;;;34.03;24.48;;;13.30;99.90;;;13.58;65.88;101791.69;5074842;28;20052;-74
2021/05/03 08:53:42;;;;;;;30.33;23.63;;;13.30;99.90;;;13.69;66.22;101794.28;5107468;28;20472;-74
2021/05/03 08:56:10;;;;;;;34.97;22.67;;;13.40;99.90;;;13.86;65.64;101784.53;5073720;28;20131;-74
2021/05/03 08:58:39;;;;;;;29.60;22.48;;;13.50;99.90;;;13.94;64.54;101780.94;5073507;28;20079;-74
2021/05/03 09:01:08;;;;;;;29.33;21.88;;;13.70;99.90;;;14.03;63.23;101786.19;5074797;28;20040;-73
2021/05/03 09:03:37;;;;;;;26.80;22.40;;;13.70;99.90;;;14.03;63.25;101772.91;5074408;28;20137;-74
2021/05/03 09:06:06;;;;;;;28.92;21.80;;;13.90;99.90;;;14.11;62.94;101795.03;5074823;28;20063;-73
2021/05/03 09:08:33;;;;;;;34.80;23.67;;;13.90;99.90;;;14.32;63.70;101794.97;5073485;28;20053;-73
2021/05/03 09:11:01;;;;;;;31.10;24.65;;;14.00;99.90;;;13.96;62.68;101727.72;5074457;28;20044;-73
2021/05/03 09:13:31;;;;;;;29.90;24.10;;;14.10;99.90;;;14.34;62.26;101793.19;5074456;28;20128;-74
2021/05/03 09:16:19;;;;;;;35.65;25.38;;;14.10;99.90;;;14.25;61.91;101787.91;5073934;28;20056;-74
2021/05/03 09:18:47;;;;;;;34.50;25.60;;;14.00;99.90;;;14.23;63.09;101780.81;5074473;28;20097;-74
2021/05/03 09:21:20;;;;;;;34.13;27.55;;;14.00;99.90;;;14.16;62.68;101771.09;5074274;28;20036;-73
2021/05/03 09:24:02;;;;;;;39.42;30.55;;;13.90;99.90;;;14.11;64.02;101767.56;5074400;28;20049;-74
2021/05/03 09:26:43;;;;;;;38.25;29.33;;;13.80;99.90;;;13.56;63.50;101680.03;5074679;28;20055;-74
2021/05/03 09:29:33;;;;;;;38.42;30.98;;;13.90;99.90;;;14.20;64.64;101780.81;5074385;28;20063;-74
2021/05/03 09:32:09;;;;;;;36.20;29.65;;;13.90;99.90;;;14.14;63.97;101755.13;5074093;28;20040;-73
2021/05/03 09:34:41;;;;;;;39.83;30.15;;;13.90;99.90;;;14.50;64.33;101778.03;5073622;28;20052;-74
2021/05/03 09:37:30;;;;;;;37.75;26.92;;;14.10;99.90;;;14.23;62.29;101770.16;5074144;28;20222;-73
2021/05/03 09:40:07;;;;;;;29.98;24.15;;;14.00;99.90;;;14.36;62.80;101767.47;5073831;28;20509;-74
2021/05/03 09:42:49;;;;;;;31.15;25.48;;;14.10;99.90;;;14.43;63.36;101765.66;5074065;28;20105;-73
2021/05/03 09:45:21;;;;;;;32.85;26.27;;;14.10;99.90;;;14.48;62.99;101762.97;5073990;28;20131;-74
2021/05/03 09:47:51;;;;;;;35.33;28.25;;;14.20;99.90;;;14.37;62.90;101766.59;5073518;28;20041;-74
2021/05/03 09:50:21;;;;;;;37.22;25.77;;;14.20;99.90;;;14.39;62.92;101759.47;5073657;28;20055;-74
2021/05/03 09:53:06;;;;;;;31.83;23.20;;;14.10;99.90;;;14.43;62.34;101774.53;5071500;28;20486;-74
2021/05/03 09:55:42;;;;;;;28.15;22.77;;;14.20;99.90;;;14.28;62.39;101756.00;5073868;28;20056;-74
2021/05/03 09:58:17;;;;;;;30.83;21.25;;;14.00;99.90;;;14.18;61.75;101767.53;5106333;28;20041;-74
2021/05/03 10:00:46;;;;;;;25.23;21.83;;;13.90;99.90;;;14.23;61.86;101756.84;5073745;28;20041;-74
2021/05/03 10:03:38;;;;;;;25.13;17.48;;;13.90;99.90;;;13.79;60.06;101647.13;5073247;28;20402;-74
2021/05/03 10:06:08;;;;;;;23.77;18.17;;;14.00;99.90;;;14.45;59.84;101747.91;5089240;28;20051;-74
2021/05/03 10:08:37;;;;;;;23.80;19.45;;;14.20;99.90;;;14.55;59.83;101752.28;5073645;28;20045;-74
2021/05/03 10:11:08;;;;;;;22.58;17.08;;;14.20;99.90;;;14.56;58.60;101750.47;5073753;28;20047;-74
2021/05/03 10:13:38;;;;;;;30.02;19.27;;;14.30;99.90;;;14.70;59.54;101743.28;5073081;28;20040;-73
2021/05/03 10:16:07;;;;;;;22.13;17.13;;;14.40;99.90;;;14.90;59.39;101734.25;5072146;28;20056;-74
2021/05/03 10:18:40;;;;;;;21.40;15.98;;;14.60;99.90;;;15.01;57.94;101718.16;5073366;28;20052;-73
2021/05/03 10:21:09;;;;;;;26.92;17.38;;;14.70;99.90;;;15.07;57.52;101720.78;5072980;28;20502;-74